Geervliet — PCLI — position and weather

sailwx.info

Track history (hours):
 
Tides and Currents Weather Stations Pressure Air Temp Water Temp Dewpoint Dewpoint Depression Visibility Wind Speed Wind Dir Waves Ship Positions

Geervliet

Last reported at 2016-Aug-26 10:29 UTC. Time now 2016-Aug-27 15:11 UTC.
Position N 48°33' W 006°21'.

Length 86 m; draft 5.3 m.

Type: Ship. MMSI: 246803000.

Date/timePositionNaut miles runAvg speedWind from/ knotsBaromVisibWave heightAir tempDewpointWater temp
2016-Aug-26 10:29N 48°33' W 006°21'1010.3
2016-Aug-26 09:29N 48°40' W 006°10'9 9.8
2016-Aug-26 08:33N 48°45' W 005°59'1010.1
2016-Aug-26 07:33N 48°52' W 005°48'1010.2
2016-Aug-26 06:33N 48°59' W 005°36'2211.0
2016-Aug-26 04:33N 49°10' W 005°06'1211.6
2016-Aug-26 03:33N 49°15' W 004°51'1111.3
2016-Aug-26 02:33N 49°21' W 004°36'1110.8
2016-Aug-26 01:33N 49°26' W 004°21'1010.2
2016-Aug-26 00:32N 49°31' W 004°07'12 9.8
2016-Aug-25 23:19N 49°37' W 003°51'8 9.9
2016-Aug-25 22:31N 49°41' W 003°41'1010.0
2016-Aug-25 21:33N 49°45' W 003°27'1110.6
2016-Aug-25 20:33N 49°50' W 003°13'1211.8
2016-Aug-25 19:33N 49°56' W 002°57'1312.7
2016-Aug-25 18:32N 50°00' W 002°38'1312.9
2016-Aug-25 17:33N 50°04' W 002°19'1212.1
2016-Aug-25 16:34N 50°08' W 002°02'1110.6
2016-Aug-25 15:33N 50°11' W 001°46'10 9.3
2016-Aug-25 14:32N 50°13' W 001°31'8 8.5
2016-Aug-25 13:33N 50°16' W 001°19'8 8.1
2016-Aug-25 12:33N 50°19' W 001°07'9 8.7
2016-Aug-25 11:30N 50°21' W 000°54'1010.2
2016-Aug-25 10:33N 50°24' W 000°39'1111.3
2016-Aug-25 09:33N 50°27' W 000°22'1212.2
2016-Aug-25 08:33N 50°31' W 000°04'1212.1
2016-Aug-25 07:33N 50°34' E 000°14'1211.9
2016-Aug-25 06:34N 50°38' E 000°32'2110.6
2016-Aug-25 04:32N 50°49' E 001°01'9 9.5
2016-Aug-25 03:33N 50°55' E 001°12'9 9.5
2016-Aug-25 02:34N 51°02' E 001°23'1211.8
2016-Aug-25 01:34N 51°10' E 001°37'1312.8
2016-Aug-25 00:33N 51°20' E 001°49'1312.8
2016-Aug-24 23:33N 51°31' E 001°60'1211.9
2016-Aug-24 22:33N 51°40' E 002°13'1111.1
2016-Aug-24 21:34N 51°48' E 002°25'1010.1
2016-Aug-24 20:33N 51°56' E 002°36'38 9.5
2016-Aug-24 16:33N 52°26' E 003°15'1111.1
2016-Aug-24 15:34N 52°34' E 003°26'1211.8
2016-Aug-24 14:33N 52°44' E 003°38'1311.9
2016-Aug-24 13:29N 52°54' E 003°51'1111.6
2016-Aug-24 12:32N 53°01' E 004°05'1311.0
2016-Aug-24 11:19N 53°10' E 004°22'810.0
2016-Aug-24 10:34N 53°16' E 004°28'10 9.8
2016-Aug-24 09:33N 53°25' E 004°36'9 9.0
2016-Aug-24 08:33N 53°30' E 004°49'10 9.9
2016-Aug-24 07:33N 53°34' E 005°04'1111.2
2016-Aug-24 06:33N 53°37' E 005°22'2411.8
2016-Aug-24 04:33N 53°45' E 005°60'1111.4
2016-Aug-24 03:33N 53°49' E 006°18'1110.9
2016-Aug-24 02:33N 53°51' E 006°36'1010.2
2016-Aug-24 01:33N 53°54' E 006°53'10 9.8
2016-Aug-24 00:33N 53°56' E 007°09'9 9.5
2016-Aug-23 23:33N 53°59' E 007°24'10 9.7
2016-Aug-23 22:33N 54°01' E 007°40'1110.7
2016-Aug-23 21:34N 54°02' E 007°58'1212.1
2016-Aug-23 20:33N 54°00' E 008°19'1312.8
2016-Aug-23 19:34N 53°56' E 008°39'1211.8
2016-Aug-23 18:33N 53°51' E 008°57'7 7.2
2016-Aug-23 17:33N 53°54' E 009°09'1 1.2
2016-Aug-23 16:34N 53°54' E 009°10'1 0.5
2016-Aug-23 15:33N 53°55' E 009°11'0 0.0
2016-Aug-23 14:30N 53°55' E 009°11'0 0.3
2016-Aug-23 13:33N 53°55' E 009°11'7 7.2
2016-Aug-23 12:33N 54°01' E 009°18'25 7.7
2016-Aug-23 09:21N 54°20' E 009°45'6 7.6
2016-Aug-23 08:33N 54°21' E 009°55'7 7.5
2016-Aug-23 07:34N 54°22' E 010°08'2 1.7
2016-Aug-23 06:33N 54°22' E 010°11'8 8.4
2016-Aug-23 05:33N 54°30' E 010°17'10 9.9
2016-Aug-23 04:33N 54°34' E 010°33'10 9.8
2016-Aug-23 03:33N 54°35' E 010°50'10 9.7
2016-Aug-23 02:33N 54°36' E 011°07'10 9.7
2016-Aug-23 01:33N 54°33' E 011°22'1010.3
2016-Aug-23 00:33N 54°28' E 011°38'1010.2
2016-Aug-22 23:33N 54°22' E 011°53'1010.3
2016-Aug-22 22:33N 54°14' E 012°04'5 2.4
2016-Aug-22 20:25N 54°09' E 012°07'0 0.0
2016-Aug-22 19:32N 54°09' E 012°07'0 0.0
2016-Aug-22 17:10N 54°09' E 012°07'0 0.0
2016-Aug-22 15:31N 54°09' E 012°07'0 0.0
2016-Aug-22 14:04N 54°09' E 012°07'0 0.0
2016-Aug-22 13:04N 54°09' E 012°07'0 0.0
2016-Aug-22 12:31N 54°09' E 012°07'0 0.0
2016-Aug-22 10:31N 54°09' E 012°07'0 0.0
2016-Aug-22 09:13N 54°09' E 012°07'0 0.0
2016-Aug-22 08:25N 54°09' E 012°07'0 0.0
2016-Aug-22 06:07N 54°09' E 012°07'0 0.0
2016-Aug-22 04:28N 54°09' E 012°07'0 0.0
2016-Aug-22 02:31N 54°09' E 012°07'0 0.0
2016-Aug-21 22:31N 54°09' E 012°07'0 0.0
2016-Aug-21 21:13N 54°09' E 012°07'0 0.0
2016-Aug-21 20:28N 54°09' E 012°07'0 0.0
2016-Aug-21 19:13N 54°09' E 012°07'0 0.0
2016-Aug-21 18:13N 54°09' E 012°07'1 2.0
2016-Aug-21 17:32N 54°11' E 012°06'4 3.4
2016-Aug-21 16:24N 54°13' E 012°00'0 0.0
2016-Aug-21 15:30N 54°13' E 012°00'0 0.0
2016-Aug-21 14:33N 54°13' E 012°00'0 0.0
2016-Aug-21 13:30N 54°13' E 012°00'0 0.0
2016-Aug-21 12:33N 54°13' E 012°00'0 0.0
2016-Aug-21 11:21N 54°13' E 012°00'0 0.0
2016-Aug-21 10:21N 54°13' E 012°00'0 0.0
2016-Aug-21 09:18N 54°13' E 012°00'0 0.0
2016-Aug-21 08:24N 54°13' E 012°00'0 0.0
2016-Aug-21 07:06N 54°13' E 012°00'0 0.0
2016-Aug-21 06:27N 54°13' E 012°00'0 0.0
2016-Aug-21 05:30N 54°13' E 012°00'0 0.0
2016-Aug-21 04:33N 54°13' E 012°00'0 0.0
2016-Aug-21 02:30N 54°13' E 012°00'1 1.2
2016-Aug-21 01:34N 54°14' E 012°01'9 9.0
2016-Aug-21 00:33N 54°23' E 012°03'9 9.3
2016-Aug-20 23:33N 54°31' E 012°11'1010.0
2016-Aug-20 22:33N 54°39' E 012°20'1010.2
2016-Aug-20 21:32N 54°46' E 012°34'1010.0
2016-Aug-20 20:33N 54°56' E 012°36'10 9.9
2016-Aug-20 19:33N 55°06' E 012°37'1010.0
2016-Aug-20 18:33N 55°16' E 012°38'10 9.7
2016-Aug-20 17:34N 55°25' E 012°39'9 9.0
2016-Aug-20 16:33N 55°34' E 012°42'9 8.7
2016-Aug-20 15:33N 55°43' E 012°41'9 8.9
2016-Aug-20 14:33N 55°52' E 012°39'9 8.7
2016-Aug-20 13:33N 56°00' E 012°40'8 7.6
2016-Aug-20 12:33N 56°06' E 012°32'9 8.6
2016-Aug-20 11:33N 56°11' E 012°20'10 9.9
2016-Aug-20 10:33N 56°17' E 012°05'10 9.7
2016-Aug-20 09:33N 56°27' E 011°59'1010.0
2016-Aug-20 08:33N 56°36' E 011°56'1010.0
2016-Aug-20 07:33N 56°46' E 011°52'1010.2
2016-Aug-20 06:33N 56°56' E 011°45'10 9.9
2016-Aug-20 05:33N 57°05' E 011°39'10 9.8
2016-Aug-20 04:33N 57°14' E 011°33'10 9.6
2016-Aug-20 03:33N 57°23' E 011°27'9 9.3
2016-Aug-20 02:33N 57°31' E 011°18'10 9.9
2016-Aug-20 01:33N 57°38' E 011°04'1010.0
2016-Aug-20 00:33N 57°45' E 010°51'119 9.9
2016-Aug-19 12:32N 57°43' E 007°07'9 9.3
2016-Aug-19 11:33N 57°43' E 006°50'9 9.0
2016-Aug-19 10:32N 57°44' E 006°33'9 8.7
2016-Aug-19 09:32N 57°50' E 006°21'9 9.3
2016-Aug-19 08:32N 57°56' E 006°07'1010.6
2016-Aug-19 07:33N 58°02' E 005°51'1010.6
2016-Aug-19 06:33N 58°09' E 005°36'1110.8
2016-Aug-19 05:33N 58°16' E 005°21'1111.0
2016-Aug-19 04:33N 58°26' E 005°12'1111.1
2016-Aug-19 03:34N 58°37' E 005°12'1111.3
2016-Aug-19 02:34N 58°48' E 005°16'1211.6
2016-Aug-19 01:34N 58°60' E 005°19'1010.0
2016-Aug-19 00:34N 59°08' E 005°28'10 9.9
2016-Aug-18 23:33N 59°15' E 005°42'1110.8
2016-Aug-18 22:34N 59°21' E 005°60'1 0.0
2016-Aug-17 12:31N 59°22' E 006°01'1111.7
2016-Aug-17 11:33N 59°16' E 005°43'1211.6
2016-Aug-17 10:33N 59°07' E 005°28'8 7.9
2016-Aug-17 09:33N 59°03' E 005°14'1212.2
2016-Aug-17 08:33N 59°03' E 004°51'1212.2
2016-Aug-17 07:33N 59°05' E 004°27'  
Track history (hours):
 
Tides and Currents Weather Stations Pressure Air Temp Water Temp Dewpoint Dewpoint Depression Visibility Wind Speed Wind Dir Waves Ship Positions

Geervliet

Last reported at 2016-Aug-26 10:29 UTC. Time now 2016-Aug-27 15:11 UTC.
Position N 48°33' W 006°21'.

Length 86 m; draft 5.3 m.

Type: Ship. MMSI: 246803000.

Date/timePositionNaut miles runAvg speedWind from/ knotsBaromVisibWave heightAir tempDewpointWater temp
2016-Aug-26 10:29N 48°33' W 006°21'1010.3
2016-Aug-26 09:29N 48°40' W 006°10'9 9.8
2016-Aug-26 08:33N 48°45' W 005°59'1010.1
2016-Aug-26 07:33N 48°52' W 005°48'1010.2
2016-Aug-26 06:33N 48°59' W 005°36'2211.0
2016-Aug-26 04:33N 49°10' W 005°06'1211.6
2016-Aug-26 03:33N 49°15' W 004°51'1111.3
2016-Aug-26 02:33N 49°21' W 004°36'1110.8
2016-Aug-26 01:33N 49°26' W 004°21'1010.2
2016-Aug-26 00:32N 49°31' W 004°07'12 9.8
2016-Aug-25 23:19N 49°37' W 003°51'8 9.9
2016-Aug-25 22:31N 49°41' W 003°41'1010.0
2016-Aug-25 21:33N 49°45' W 003°27'1110.6
2016-Aug-25 20:33N 49°50' W 003°13'1211.8
2016-Aug-25 19:33N 49°56' W 002°57'1312.7
2016-Aug-25 18:32N 50°00' W 002°38'1312.9
2016-Aug-25 17:33N 50°04' W 002°19'1212.1
2016-Aug-25 16:34N 50°08' W 002°02'1110.6
2016-Aug-25 15:33N 50°11' W 001°46'10 9.3
2016-Aug-25 14:32N 50°13' W 001°31'8 8.5
2016-Aug-25 13:33N 50°16' W 001°19'8 8.1
2016-Aug-25 12:33N 50°19' W 001°07'9 8.7
2016-Aug-25 11:30N 50°21' W 000°54'1010.2
2016-Aug-25 10:33N 50°24' W 000°39'1111.3
2016-Aug-25 09:33N 50°27' W 000°22'1212.2
2016-Aug-25 08:33N 50°31' W 000°04'1212.1
2016-Aug-25 07:33N 50°34' E 000°14'1211.9
2016-Aug-25 06:34N 50°38' E 000°32'2110.6
2016-Aug-25 04:32N 50°49' E 001°01'9 9.5
2016-Aug-25 03:33N 50°55' E 001°12'9 9.5
2016-Aug-25 02:34N 51°02' E 001°23'1211.8
2016-Aug-25 01:34N 51°10' E 001°37'1312.8
2016-Aug-25 00:33N 51°20' E 001°49'1312.8
2016-Aug-24 23:33N 51°31' E 001°60'1211.9
2016-Aug-24 22:33N 51°40' E 002°13'1111.1
2016-Aug-24 21:34N 51°48' E 002°25'1010.1
2016-Aug-24 20:33N 51°56' E 002°36'38 9.5
2016-Aug-24 16:33N 52°26' E 003°15'1111.1
2016-Aug-24 15:34N 52°34' E 003°26'1211.8
2016-Aug-24 14:33N 52°44' E 003°38'1311.9
2016-Aug-24 13:29N 52°54' E 003°51'1111.6
2016-Aug-24 12:32N 53°01' E 004°05'1311.0
2016-Aug-24 11:19N 53°10' E 004°22'810.0
2016-Aug-24 10:34N 53°16' E 004°28'10 9.8
2016-Aug-24 09:33N 53°25' E 004°36'9 9.0
2016-Aug-24 08:33N 53°30' E 004°49'10 9.9
2016-Aug-24 07:33N 53°34' E 005°04'1111.2
2016-Aug-24 06:33N 53°37' E 005°22'2411.8
2016-Aug-24 04:33N 53°45' E 005°60'1111.4
2016-Aug-24 03:33N 53°49' E 006°18'1110.9
2016-Aug-24 02:33N 53°51' E 006°36'1010.2
2016-Aug-24 01:33N 53°54' E 006°53'10 9.8
2016-Aug-24 00:33N 53°56' E 007°09'9 9.5
2016-Aug-23 23:33N 53°59' E 007°24'10 9.7
2016-Aug-23 22:33N 54°01' E 007°40'1110.7
2016-Aug-23 21:34N 54°02' E 007°58'1212.1
2016-Aug-23 20:33N 54°00' E 008°19'1312.8
2016-Aug-23 19:34N 53°56' E 008°39'1211.8
2016-Aug-23 18:33N 53°51' E 008°57'7 7.2
2016-Aug-23 17:33N 53°54' E 009°09'1 1.2
2016-Aug-23 16:34N 53°54' E 009°10'1 0.5
2016-Aug-23 15:33N 53°55' E 009°11'0 0.0
2016-Aug-23 14:30N 53°55' E 009°11'0 0.3
2016-Aug-23 13:33N 53°55' E 009°11'7 7.2
2016-Aug-23 12:33N 54°01' E 009°18'25 7.7
2016-Aug-23 09:21N 54°20' E 009°45'6 7.6
2016-Aug-23 08:33N 54°21' E 009°55'7 7.5
2016-Aug-23 07:34N 54°22' E 010°08'2 1.7
2016-Aug-23 06:33N 54°22' E 010°11'8 8.4
2016-Aug-23 05:33N 54°30' E 010°17'10 9.9
2016-Aug-23 04:33N 54°34' E 010°33'10 9.8
2016-Aug-23 03:33N 54°35' E 010°50'10 9.7
2016-Aug-23 02:33N 54°36' E 011°07'10 9.7
2016-Aug-23 01:33N 54°33' E 011°22'1010.3
2016-Aug-23 00:33N 54°28' E 011°38'1010.2
2016-Aug-22 23:33N 54°22' E 011°53'1010.3
2016-Aug-22 22:33N 54°14' E 012°04'5 2.4
2016-Aug-22 20:25N 54°09' E 012°07'0 0.0
2016-Aug-22 19:32N 54°09' E 012°07'0 0.0
2016-Aug-22 17:10N 54°09' E 012°07'0 0.0
2016-Aug-22 15:31N 54°09' E 012°07'0 0.0
2016-Aug-22 14:04N 54°09' E 012°07'0 0.0
2016-Aug-22 13:04N 54°09' E 012°07'0 0.0
2016-Aug-22 12:31N 54°09' E 012°07'0 0.0
2016-Aug-22 10:31N 54°09' E 012°07'0 0.0
2016-Aug-22 09:13N 54°09' E 012°07'0 0.0
2016-Aug-22 08:25N 54°09' E 012°07'0 0.0
2016-Aug-22 06:07N 54°09' E 012°07'0 0.0
2016-Aug-22 04:28N 54°09' E 012°07'0 0.0
2016-Aug-22 02:31N 54°09' E 012°07'0 0.0
2016-Aug-21 22:31N 54°09' E 012°07'0 0.0
2016-Aug-21 21:13N 54°09' E 012°07'0 0.0
2016-Aug-21 20:28N 54°09' E 012°07'0 0.0
2016-Aug-21 19:13N 54°09' E 012°07'0 0.0
2016-Aug-21 18:13N 54°09' E 012°07'1 2.0
2016-Aug-21 17:32N 54°11' E 012°06'4 3.4
2016-Aug-21 16:24N 54°13' E 012°00'0 0.0
2016-Aug-21 15:30N 54°13' E 012°00'0 0.0
2016-Aug-21 14:33N 54°13' E 012°00'0 0.0
2016-Aug-21 13:30N 54°13' E 012°00'0 0.0
2016-Aug-21 12:33N 54°13' E 012°00'0 0.0
2016-Aug-21 11:21N 54°13' E 012°00'0 0.0
2016-Aug-21 10:21N 54°13' E 012°00'0 0.0
2016-Aug-21 09:18N 54°13' E 012°00'0 0.0
2016-Aug-21 08:24N 54°13' E 012°00'0 0.0
2016-Aug-21 07:06N 54°13' E 012°00'0 0.0
2016-Aug-21 06:27N 54°13' E 012°00'0 0.0
2016-Aug-21 05:30N 54°13' E 012°00'0 0.0
2016-Aug-21 04:33N 54°13' E 012°00'0 0.0
2016-Aug-21 02:30N 54°13' E 012°00'1 1.2
2016-Aug-21 01:34N 54°14' E 012°01'9 9.0
2016-Aug-21 00:33N 54°23' E 012°03'9 9.3
2016-Aug-20 23:33N 54°31' E 012°11'1010.0
2016-Aug-20 22:33N 54°39' E 012°20'1010.2
2016-Aug-20 21:32N 54°46' E 012°34'1010.0
2016-Aug-20 20:33N 54°56' E 012°36'10 9.9
2016-Aug-20 19:33N 55°06' E 012°37'1010.0
2016-Aug-20 18:33N 55°16' E 012°38'10 9.7
2016-Aug-20 17:34N 55°25' E 012°39'9 9.0
2016-Aug-20 16:33N 55°34' E 012°42'9 8.7
2016-Aug-20 15:33N 55°43' E 012°41'9 8.9
2016-Aug-20 14:33N 55°52' E 012°39'9 8.7
2016-Aug-20 13:33N 56°00' E 012°40'8 7.6
2016-Aug-20 12:33N 56°06' E 012°32'9 8.6
2016-Aug-20 11:33N 56°11' E 012°20'10 9.9
2016-Aug-20 10:33N 56°17' E 012°05'10 9.7
2016-Aug-20 09:33N 56°27' E 011°59'1010.0
2016-Aug-20 08:33N 56°36' E 011°56'1010.0
2016-Aug-20 07:33N 56°46' E 011°52'1010.2
2016-Aug-20 06:33N 56°56' E 011°45'10 9.9
2016-Aug-20 05:33N 57°05' E 011°39'10 9.8
2016-Aug-20 04:33N 57°14' E 011°33'10 9.6
2016-Aug-20 03:33N 57°23' E 011°27'9 9.3
2016-Aug-20 02:33N 57°31' E 011°18'10 9.9
2016-Aug-20 01:33N 57°38' E 011°04'1010.0
2016-Aug-20 00:33N 57°45' E 010°51'119 9.9
2016-Aug-19 12:32N 57°43' E 007°07'9 9.3
2016-Aug-19 11:33N 57°43' E 006°50'9 9.0
2016-Aug-19 10:32N 57°44' E 006°33'9 8.7
2016-Aug-19 09:32N 57°50' E 006°21'9 9.3
2016-Aug-19 08:32N 57°56' E 006°07'1010.6
2016-Aug-19 07:33N 58°02' E 005°51'1010.6
2016-Aug-19 06:33N 58°09' E 005°36'1110.8
2016-Aug-19 05:33N 58°16' E 005°21'1111.0
2016-Aug-19 04:33N 58°26' E 005°12'1111.1
2016-Aug-19 03:34N 58°37' E 005°12'1111.3
2016-Aug-19 02:34N 58°48' E 005°16'1211.6
2016-Aug-19 01:34N 58°60' E 005°19'1010.0
2016-Aug-19 00:34N 59°08' E 005°28'10 9.9
2016-Aug-18 23:33N 59°15' E 005°42'1110.8
2016-Aug-18 22:34N 59°21' E 005°60'1 0.0
2016-Aug-17 12:31N 59°22' E 006°01'1111.7
2016-Aug-17 11:33N 59°16' E 005°43'1211.6
2016-Aug-17 10:33N 59°07' E 005°28'8 7.9
2016-Aug-17 09:33N 59°03' E 005°14'1212.2
2016-Aug-17 08:33N 59°03' E 004°51'1212.2
2016-Aug-17 07:33N 59°05' E 004°27'  

Dump ship's entire track history